sensor_id;sensor_type;location;lat;lon;timestamp;temperature;humidity
12460;DHT22;6295;49.452;8.466;2022-09-09T00:01:19;17.20;99.90
12460;DHT22;6295;49.452;8.466;2022-09-09T00:05:31;17.20;99.90
12460;DHT22;6295;49.452;8.466;2022-09-09T00:09:40;17.20;99.90
12460;DHT22;6295;49.452;8.466;2022-09-09T00:13:50;17.20;99.90
12460;DHT22;6295;49.452;8.466;2022-09-09T00:18:00;17.20;99.90
12460;DHT22;6295;49.452;8.466;2022-09-09T00:22:13;17.30;99.90
12460;DHT22;6295;49.452;8.466;2022-09-09T00:26:19;17.20;99.90
12460;DHT22;6295;49.452;8.466;2022-09-09T00:30:27;17.30;99.90
12460;DHT22;6295;49.452;8.466;2022-09-09T00:34:29;17.40;99.90
12460;DHT22;6295;49.452;8.466;2022-09-09T00:38:35;17.40;99.90
12460;DHT22;6295;49.452;8.466;2022-09-09T00:42:42;17.40;99.90
12460;DHT22;6295;49.452;8.466;2022-09-09T00:46:59;17.40;99.90
12460;DHT22;6295;49.452;8.466;2022-09-09T00:51:09;17.40;99.90
12460;DHT22;6295;49.452;8.466;2022-09-09T00:55:17;17.50;99.90
12460;DHT22;6295;49.452;8.466;2022-09-09T00:59:28;17.50;99.90
12460;DHT22;6295;49.452;8.466;2022-09-09T01:03:40;17.50;99.90
12460;DHT22;6295;49.452;8.466;2022-09-09T01:07:48;17.50;99.90
12460;DHT22;6295;49.452;8.466;2022-09-09T01:11:55;17.50;99.90
12460;DHT22;6295;49.452;8.466;2022-09-09T01:16:03;17.50;99.90
12460;DHT22;6295;49.452;8.466;2022-09-09T01:20:14;17.50;99.90
12460;DHT22;6295;49.452;8.466;2022-09-09T01:24:24;17.50;99.90
12460;DHT22;6295;49.452;8.466;2022-09-09T01:28:29;17.50;99.90
12460;DHT22;6295;49.452;8.466;2022-09-09T01:32:42;17.50;99.90
12460;DHT22;6295;49.452;8.466;2022-09-09T01:36:48;17.50;99.90
12460;DHT22;6295;49.452;8.466;2022-09-09T01:40:52;17.50;99.90
12460;DHT22;6295;49.452;8.466;2022-09-09T01:44:56;17.50;99.90
12460;DHT22;6295;49.452;8.466;2022-09-09T01:48:59;17.50;99.90
12460;DHT22;6295;49.452;8.466;2022-09-09T01:57:11;17.60;99.90
12460;DHT22;6295;49.452;8.466;2022-09-09T02:01:26;17.60;99.90
12460;DHT22;6295;49.452;8.466;2022-09-09T02:09:41;17.60;99.90
12460;DHT22;6295;49.452;8.466;2022-09-09T02:17:52;17.60;99.90
12460;DHT22;6295;49.452;8.466;2022-09-09T02:21:56;17.60;99.90
12460;DHT22;6295;49.452;8.466;2022-09-09T02:30:05;17.50;99.90
12460;DHT22;6295;49.452;8.466;2022-09-09T02:34:09;17.50;99.90
12460;DHT22;6295;49.452;8.466;2022-09-09T02:38:13;17.50;99.90
12460;DHT22;6295;49.452;8.466;2022-09-09T02:42:17;17.50;99.90
12460;DHT22;6295;49.452;8.466;2022-09-09T02:46:34;17.50;99.90
12460;DHT22;6295;49.452;8.466;2022-09-09T02:50:48;17.50;99.90
12460;DHT22;6295;49.452;8.466;2022-09-09T02:54:59;17.40;99.90
12460;DHT22;6295;49.452;8.466;2022-09-09T03:07:13;17.40;99.90
12460;DHT22;6295;49.452;8.466;2022-09-09T03:11:16;17.40;99.90
12460;DHT22;6295;49.452;8.466;2022-09-09T03:19:21;17.40;99.90
12460;DHT22;6295;49.452;8.466;2022-09-09T03:23:25;17.40;99.90
12460;DHT22;6295;49.452;8.466;2022-09-09T03:27:27;17.40;99.90
12460;DHT22;6295;49.452;8.466;2022-09-09T03:31:29;17.30;99.90
12460;DHT22;6295;49.452;8.466;2022-09-09T03:35:31;17.30;99.90
12460;DHT22;6295;49.452;8.466;2022-09-09T03:39:35;17.30;99.90
12460;DHT22;6295;49.452;8.466;2022-09-09T03:43:37;17.30;99.90
12460;DHT22;6295;49.452;8.466;2022-09-09T03:47:40;17.30;99.90
12460;DHT22;6295;49.452;8.466;2022-09-09T03:51:42;17.30;99.90
12460;DHT22;6295;49.452;8.466;2022-09-09T03:55:47;17.20;99.90
12460;DHT22;6295;49.452;8.466;2022-09-09T03:59:49;17.20;99.90
12460;DHT22;6295;49.452;8.466;2022-09-09T04:03:51;17.20;99.90
12460;DHT22;6295;49.452;8.466;2022-09-09T04:07:53;17.10;99.90
12460;DHT22;6295;49.452;8.466;2022-09-09T04:11:57;17.10;99.90
12460;DHT22;6295;49.452;8.466;2022-09-09T04:16:00;17.10;99.90
12460;DHT22;6295;49.452;8.466;2022-09-09T04:20:02;17.10;99.90
12460;DHT22;6295;49.452;8.466;2022-09-09T04:24:05;17.10;99.90
12460;DHT22;6295;49.452;8.466;2022-09-09T04:28:08;17.00;99.90
12460;DHT22;6295;49.452;8.466;2022-09-09T04:32:10;17.00;99.90
12460;DHT22;6295;49.452;8.466;2022-09-09T04:36:13;17.00;99.90
12460;DHT22;6295;49.452;8.466;2022-09-09T04:44:19;17.00;99.90
12460;DHT22;6295;49.452;8.466;2022-09-09T04:48:21;17.00;99.90
12460;DHT22;6295;49.452;8.466;2022-09-09T04:52:23;17.10;99.90
12460;DHT22;6295;49.452;8.466;2022-09-09T04:56:25;17.00;99.90
12460;DHT22;6295;49.452;8.466;2022-09-09T05:00:30;17.00;99.90
12460;DHT22;6295;49.452;8.466;2022-09-09T05:04:32;17.10;99.90
12460;DHT22;6295;49.452;8.466;2022-09-09T05:08:35;17.00;99.90
12460;DHT22;6295;49.452;8.466;2022-09-09T05:12:37;17.00;99.90
12460;DHT22;6295;49.452;8.466;2022-09-09T05:16:41;17.00;99.90
12460;DHT22;6295;49.452;8.466;2022-09-09T05:20:44;17.00;99.90
12460;DHT22;6295;49.452;8.466;2022-09-09T05:24:47;17.00;99.90
12460;DHT22;6295;49.452;8.466;2022-09-09T05:28:51;17.00;99.90
12460;DHT22;6295;49.452;8.466;2022-09-09T05:32:57;17.10;99.90
12460;DHT22;6295;49.452;8.466;2022-09-09T05:36:59;17.00;99.90
12460;DHT22;6295;49.452;8.466;2022-09-09T05:41:02;17.10;99.90
12460;DHT22;6295;49.452;8.466;2022-09-09T05:45:05;17.10;99.90
12460;DHT22;6295;49.452;8.466;2022-09-09T05:49:09;17.00;99.90
12460;DHT22;6295;49.452;8.466;2022-09-09T05:53:11;17.10;99.90
12460;DHT22;6295;49.452;8.466;2022-09-09T05:57:13;17.00;99.90
12460;DHT22;6295;49.452;8.466;2022-09-09T06:01:18;17.10;99.90
12460;DHT22;6295;49.452;8.466;2022-09-09T06:09:27;17.10;99.90
12460;DHT22;6295;49.452;8.466;2022-09-09T06:13:32;17.20;99.90
12460;DHT22;6295;49.452;8.466;2022-09-09T06:17:36;17.20;99.90
12460;DHT22;6295;49.452;8.466;2022-09-09T06:33:51;17.30;99.90
12460;DHT22;6295;49.452;8.466;2022-09-09T06:37:54;17.30;99.90
12460;DHT22;6295;49.452;8.466;2022-09-09T06:41:57;17.30;99.90
12460;DHT22;6295;49.452;8.466;2022-09-09T06:46:03;17.40;99.90
12460;DHT22;6295;49.452;8.466;2022-09-09T06:50:06;17.40;99.90
12460;DHT22;6295;49.452;8.466;2022-09-09T06:54:11;17.50;99.90
12460;DHT22;6295;49.452;8.466;2022-09-09T06:58:13;17.40;99.90
12460;DHT22;6295;49.452;8.466;2022-09-09T07:02:15;17.50;99.90
12460;DHT22;6295;49.452;8.466;2022-09-09T07:06:18;17.50;99.90
12460;DHT22;6295;49.452;8.466;2022-09-09T07:10:23;17.60;99.90
12460;DHT22;6295;49.452;8.466;2022-09-09T07:18:30;17.70;99.90
12460;DHT22;6295;49.452;8.466;2022-09-09T07:22:33;17.80;99.90
12460;DHT22;6295;49.452;8.466;2022-09-09T07:26:40;17.90;99.90
12460;DHT22;6295;49.452;8.466;2022-09-09T07:30:45;18.00;99.90
12460;DHT22;6295;49.452;8.466;2022-09-09T07:34:56;18.10;99.90
12460;DHT22;6295;49.452;8.466;2022-09-09T07:43:05;18.20;99.90
12460;DHT22;6295;49.452;8.466;2022-09-09T07:47:07;18.20;99.90
12460;DHT22;6295;49.452;8.466;2022-09-09T07:51:10;18.20;99.90
12460;DHT22;6295;49.452;8.466;2022-09-09T07:55:13;18.30;99.90
12460;DHT22;6295;49.452;8.466;2022-09-09T07:59:17;18.30;99.90
12460;DHT22;6295;49.452;8.466;2022-09-09T08:03:20;18.40;99.90
12460;DHT22;6295;49.452;8.466;2022-09-09T08:07:25;18.40;99.90
12460;DHT22;6295;49.452;8.466;2022-09-09T08:23:45;18.50;99.90
12460;DHT22;6295;49.452;8.466;2022-09-09T08:27:49;18.60;99.90
12460;DHT22;6295;49.452;8.466;2022-09-09T08:35:58;18.50;99.90
12460;DHT22;6295;49.452;8.466;2022-09-09T08:40:00;18.60;99.90
12460;DHT22;6295;49.452;8.466;2022-09-09T08:44:07;18.60;99.90
12460;DHT22;6295;49.452;8.466;2022-09-09T08:48:29;18.60;99.90
12460;DHT22;6295;49.452;8.466;2022-09-09T08:52:40;18.60;99.90
12460;DHT22;6295;49.452;8.466;2022-09-09T09:01:00;18.70;99.90
12460;DHT22;6295;49.452;8.466;2022-09-09T09:05:15;18.70;99.90
12460;DHT22;6295;49.452;8.466;2022-09-09T09:09:23;18.80;99.90
12460;DHT22;6295;49.452;8.466;2022-09-09T09:17:39;19.00;99.90
12460;DHT22;6295;49.452;8.466;2022-09-09T09:30:02;19.80;99.90
12460;DHT22;6295;49.452;8.466;2022-09-09T09:38:16;20.20;99.90
12460;DHT22;6295;49.452;8.466;2022-09-09T09:42:19;20.10;99.90
12460;DHT22;6295;49.452;8.466;2022-09-09T09:46:23;19.90;99.90
12460;DHT22;6295;49.452;8.466;2022-09-09T09:54:32;19.50;99.90
12460;DHT22;6295;49.452;8.466;2022-09-09T10:02:52;19.00;99.90
12460;DHT22;6295;49.452;8.466;2022-09-09T10:06:55;18.80;99.90
12460;DHT22;6295;49.452;8.466;2022-09-09T10:11:22;18.60;99.90
12460;DHT22;6295;49.452;8.466;2022-09-09T10:15:42;18.50;99.90
12460;DHT22;6295;49.452;8.466;2022-09-09T10:19:55;18.60;99.90
12460;DHT22;6295;49.452;8.466;2022-09-09T10:28:50;18.80;99.90
12460;DHT22;6295;49.452;8.466;2022-09-09T10:33:02;19.00;99.90
12460;DHT22;6295;49.452;8.466;2022-09-09T10:37:18;19.20;99.90
12460;DHT22;6295;49.452;8.466;2022-09-09T10:41:40;19.30;99.90
12460;DHT22;6295;49.452;8.466;2022-09-09T10:45:59;19.40;99.90
12460;DHT22;6295;49.452;8.466;2022-09-09T10:54:35;19.60;99.90
12460;DHT22;6295;49.452;8.466;2022-09-09T10:58:44;19.70;99.90
12460;DHT22;6295;49.452;8.466;2022-09-09T11:02:57;19.80;99.90
12460;DHT22;6295;49.452;8.466;2022-09-09T11:07:05;19.90;99.90
12460;DHT22;6295;49.452;8.466;2022-09-09T11:15:17;19.90;99.90
12460;DHT22;6295;49.452;8.466;2022-09-09T11:19:27;20.00;99.90
12460;DHT22;6295;49.452;8.466;2022-09-09T11:23:38;20.20;99.90
12460;DHT22;6295;49.452;8.466;2022-09-09T11:27:51;20.30;99.90
12460;DHT22;6295;49.452;8.466;2022-09-09T11:32:10;20.50;99.90
12460;DHT22;6295;49.452;8.466;2022-09-09T11:36:41;20.70;99.90
12460;DHT22;6295;49.452;8.466;2022-09-09T11:40:45;20.70;99.90
12460;DHT22;6295;49.452;8.466;2022-09-09T11:44:48;20.80;99.90
12460;DHT22;6295;49.452;8.466;2022-09-09T11:48:59;20.90;99.90
12460;DHT22;6295;49.452;8.466;2022-09-09T11:53:21;20.90;99.90
12460;DHT22;6295;49.452;8.466;2022-09-09T11:57:34;20.80;99.90
12460;DHT22;6295;49.452;8.466;2022-09-09T12:01:39;20.90;99.90
12460;DHT22;6295;49.452;8.466;2022-09-09T12:05:45;21.00;99.90
12460;DHT22;6295;49.452;8.466;2022-09-09T12:09:51;21.10;99.90
12460;DHT22;6295;49.452;8.466;2022-09-09T12:13:57;21.20;99.90
12460;DHT22;6295;49.452;8.466;2022-09-09T12:18:00;21.20;99.90
12460;DHT22;6295;49.452;8.466;2022-09-09T12:26:23;20.50;99.90
12460;DHT22;6295;49.452;8.466;2022-09-09T12:30:32;20.10;99.90
12460;DHT22;6295;49.452;8.466;2022-09-09T12:38:42;19.60;99.90
12460;DHT22;6295;49.452;8.466;2022-09-09T12:42:48;19.50;99.90
12460;DHT22;6295;49.452;8.466;2022-09-09T12:46:52;19.70;99.90
12460;DHT22;6295;49.452;8.466;2022-09-09T12:50:56;19.80;99.90
12460;DHT22;6295;49.452;8.466;2022-09-09T12:55:02;19.90;99.90
12460;DHT22;6295;49.452;8.466;2022-09-09T12:59:23;20.00;99.90
12460;DHT22;6295;49.452;8.466;2022-09-09T13:03:26;20.00;99.90
12460;DHT22;6295;49.452;8.466;2022-09-09T13:07:29;20.00;99.90
12460;DHT22;6295;49.452;8.466;2022-09-09T13:11:38;19.80;99.90
12460;DHT22;6295;49.452;8.466;2022-09-09T13:19:55;19.50;99.90
12460;DHT22;6295;49.452;8.466;2022-09-09T13:28:18;19.40;99.90
12460;DHT22;6295;49.452;8.466;2022-09-09T13:32:25;19.20;99.90
12460;DHT22;6295;49.452;8.466;2022-09-09T13:36:30;19.20;99.90
12460;DHT22;6295;49.452;8.466;2022-09-09T13:40:32;19.20;99.90
12460;DHT22;6295;49.452;8.466;2022-09-09T13:44:38;19.40;99.90
12460;DHT22;6295;49.452;8.466;2022-09-09T13:48:54;19.50;99.90
12460;DHT22;6295;49.452;8.466;2022-09-09T13:52:57;19.60;99.90
12460;DHT22;6295;49.452;8.466;2022-09-09T13:57:00;19.60;99.90
12460;DHT22;6295;49.452;8.466;2022-09-09T14:01:03;19.60;99.90
12460;DHT22;6295;49.452;8.466;2022-09-09T14:05:07;19.70;99.90
12460;DHT22;6295;49.452;8.466;2022-09-09T14:09:12;19.80;99.90
12460;DHT22;6295;49.452;8.466;2022-09-09T14:13:15;19.90;99.90
12460;DHT22;6295;49.452;8.466;2022-09-09T14:17:19;20.00;99.90
12460;DHT22;6295;49.452;8.466;2022-09-09T14:21:25;20.00;99.90
12460;DHT22;6295;49.452;8.466;2022-09-09T14:29:32;20.00;99.90
12460;DHT22;6295;49.452;8.466;2022-09-09T14:33:35;20.10;99.90
12460;DHT22;6295;49.452;8.466;2022-09-09T14:37:39;20.20;99.90
12460;DHT22;6295;49.452;8.466;2022-09-09T14:41:41;20.20;99.90
12460;DHT22;6295;49.452;8.466;2022-09-09T14:49:46;20.10;99.90
12460;DHT22;6295;49.452;8.466;2022-09-09T14:53:53;20.00;99.90
12460;DHT22;6295;49.452;8.466;2022-09-09T14:57:55;19.90;99.90
12460;DHT22;6295;49.452;8.466;2022-09-09T15:01:57;19.80;99.90
12460;DHT22;6295;49.452;8.466;2022-09-09T15:10:12;19.50;99.90
12460;DHT22;6295;49.452;8.466;2022-09-09T15:18:18;19.00;99.90
12460;DHT22;6295;49.452;8.466;2022-09-09T15:26:28;18.40;99.90
12460;DHT22;6295;49.452;8.466;2022-09-09T15:34:34;18.00;99.90
12460;DHT22;6295;49.452;8.466;2022-09-09T15:38:37;17.80;99.90
12460;DHT22;6295;49.452;8.466;2022-09-09T15:42:41;17.70;99.90
12460;DHT22;6295;49.452;8.466;2022-09-09T15:46:44;17.70;99.90
12460;DHT22;6295;49.452;8.466;2022-09-09T15:50:47;17.70;99.90
12460;DHT22;6295;49.452;8.466;2022-09-09T15:54:50;17.90;99.90
12460;DHT22;6295;49.452;8.466;2022-09-09T15:58:56;18.10;99.90
12460;DHT22;6295;49.452;8.466;2022-09-09T16:07:04;18.50;99.90
12460;DHT22;6295;49.452;8.466;2022-09-09T16:11:10;18.50;99.90
12460;DHT22;6295;49.452;8.466;2022-09-09T16:15:19;18.40;99.90
12460;DHT22;6295;49.452;8.466;2022-09-09T16:23:27;18.30;99.90
12460;DHT22;6295;49.452;8.466;2022-09-09T16:27:29;18.20;99.90
12460;DHT22;6295;49.452;8.466;2022-09-09T16:31:33;18.20;99.90
12460;DHT22;6295;49.452;8.466;2022-09-09T16:39:39;18.10;99.90
12460;DHT22;6295;49.452;8.466;2022-09-09T16:43:41;18.00;99.90
12460;DHT22;6295;49.452;8.466;2022-09-09T16:55:53;17.90;99.90
12460;DHT22;6295;49.452;8.466;2022-09-09T16:59:55;17.90;99.90
12460;DHT22;6295;49.452;8.466;2022-09-09T17:04:03;17.80;99.90
12460;DHT22;6295;49.452;8.466;2022-09-09T17:08:06;17.80;99.90
12460;DHT22;6295;49.452;8.466;2022-09-09T17:12:09;17.80;99.90
12460;DHT22;6295;49.452;8.466;2022-09-09T17:20:17;17.80;99.90
12460;DHT22;6295;49.452;8.466;2022-09-09T17:28:22;17.70;99.90
12460;DHT22;6295;49.452;8.466;2022-09-09T17:32:27;17.70;99.90
12460;DHT22;6295;49.452;8.466;2022-09-09T17:36:34;17.60;99.90
12460;DHT22;6295;49.452;8.466;2022-09-09T17:40:37;17.60;99.90
12460;DHT22;6295;49.452;8.466;2022-09-09T17:48:43;17.60;99.90
12460;DHT22;6295;49.452;8.466;2022-09-09T17:52:49;17.60;99.90
12460;DHT22;6295;49.452;8.466;2022-09-09T17:56:55;17.60;99.90
12460;DHT22;6295;49.452;8.466;2022-09-09T18:05:08;17.30;99.90
12460;DHT22;6295;49.452;8.466;2022-09-09T18:13:19;17.10;99.90
12460;DHT22;6295;49.452;8.466;2022-09-09T18:17:23;17.00;99.90
12460;DHT22;6295;49.452;8.466;2022-09-09T18:29:39;16.50;99.90
12460;DHT22;6295;49.452;8.466;2022-09-09T18:33:44;16.50;99.90
12460;DHT22;6295;49.452;8.466;2022-09-09T18:37:47;16.50;99.90
12460;DHT22;6295;49.452;8.466;2022-09-09T18:41:53;16.50;99.90
12460;DHT22;6295;49.452;8.466;2022-09-09T18:46:02;16.40;99.90
12460;DHT22;6295;49.452;8.466;2022-09-09T18:50:06;16.40;99.90
12460;DHT22;6295;49.452;8.466;2022-09-09T18:54:12;16.40;99.90
12460;DHT22;6295;49.452;8.466;2022-09-09T18:58:16;16.40;99.90
12460;DHT22;6295;49.452;8.466;2022-09-09T19:02:19;16.40;99.90
12460;DHT22;6295;49.452;8.466;2022-09-09T19:06:24;16.40;99.90
12460;DHT22;6295;49.452;8.466;2022-09-09T19:10:26;16.40;99.90
12460;DHT22;6295;49.452;8.466;2022-09-09T19:14:31;16.40;99.90
12460;DHT22;6295;49.452;8.466;2022-09-09T19:18:34;16.40;99.90
12460;DHT22;6295;49.452;8.466;2022-09-09T19:22:36;16.40;99.90
12460;DHT22;6295;49.452;8.466;2022-09-09T19:26:41;16.40;99.90
12460;DHT22;6295;49.452;8.466;2022-09-09T19:30:46;16.40;99.90
12460;DHT22;6295;49.452;8.466;2022-09-09T19:34:48;16.40;99.90
12460;DHT22;6295;49.452;8.466;2022-09-09T19:38:52;16.40;99.90
12460;DHT22;6295;49.452;8.466;2022-09-09T19:42:55;16.50;99.90
12460;DHT22;6295;49.452;8.466;2022-09-09T19:46:58;16.40;99.90
12460;DHT22;6295;49.452;8.466;2022-09-09T19:55:05;16.20;99.90
12460;DHT22;6295;49.452;8.466;2022-09-09T19:59:09;16.20;99.90
12460;DHT22;6295;49.452;8.466;2022-09-09T20:03:14;16.20;99.90
12460;DHT22;6295;49.452;8.466;2022-09-09T20:11:18;16.30;99.90
12460;DHT22;6295;49.452;8.466;2022-09-09T20:15:21;16.30;99.90
12460;DHT22;6295;49.452;8.466;2022-09-09T20:19:24;16.30;99.90
12460;DHT22;6295;49.452;8.466;2022-09-09T20:31:34;16.30;99.90
12460;DHT22;6295;49.452;8.466;2022-09-09T20:35:41;16.30;99.90
12460;DHT22;6295;49.452;8.466;2022-09-09T20:39:43;16.30;99.90
12460;DHT22;6295;49.452;8.466;2022-09-09T20:43:46;16.30;99.90
12460;DHT22;6295;49.452;8.466;2022-09-09T20:47:49;16.30;99.90
12460;DHT22;6295;49.452;8.466;2022-09-09T20:51:52;16.30;99.90
12460;DHT22;6295;49.452;8.466;2022-09-09T20:55:58;16.30;99.90
12460;DHT22;6295;49.452;8.466;2022-09-09T21:00:00;16.30;99.90
12460;DHT22;6295;49.452;8.466;2022-09-09T21:12:10;16.40;99.90
12460;DHT22;6295;49.452;8.466;2022-09-09T21:16:14;16.40;99.90
12460;DHT22;6295;49.452;8.466;2022-09-09T21:20:19;16.30;99.90
12460;DHT22;6295;49.452;8.466;2022-09-09T21:24:22;16.30;99.90
12460;DHT22;6295;49.452;8.466;2022-09-09T21:28:24;16.30;99.90
12460;DHT22;6295;49.452;8.466;2022-09-09T21:36:30;16.40;99.90
12460;DHT22;6295;49.452;8.466;2022-09-09T21:40:37;16.30;99.90
12460;DHT22;6295;49.452;8.466;2022-09-09T21:44:39;16.30;99.90
12460;DHT22;6295;49.452;8.466;2022-09-09T21:48:41;16.40;99.90
12460;DHT22;6295;49.452;8.466;2022-09-09T21:52:43;16.40;99.90
12460;DHT22;6295;49.452;8.466;2022-09-09T21:56:49;16.40;99.90
12460;DHT22;6295;49.452;8.466;2022-09-09T22:00:51;16.40;99.90
12460;DHT22;6295;49.452;8.466;2022-09-09T22:04:53;16.30;99.90
12460;DHT22;6295;49.452;8.466;2022-09-09T22:08:56;16.30;99.90
12460;DHT22;6295;49.452;8.466;2022-09-09T22:17:03;16.40;99.90
12460;DHT22;6295;49.452;8.466;2022-09-09T22:21:07;16.30;99.90
12460;DHT22;6295;49.452;8.466;2022-09-09T22:25:09;16.30;99.90
12460;DHT22;6295;49.452;8.466;2022-09-09T22:33:17;16.40;99.90
12460;DHT22;6295;49.452;8.466;2022-09-09T22:37:19;16.30;99.90
12460;DHT22;6295;49.452;8.466;2022-09-09T22:41:23;16.30;99.90
12460;DHT22;6295;49.452;8.466;2022-09-09T22:45:27;16.30;99.90
12460;DHT22;6295;49.452;8.466;2022-09-09T22:49:29;16.40;99.90
12460;DHT22;6295;49.452;8.466;2022-09-09T22:53:32;16.40;99.90
12460;DHT22;6295;49.452;8.466;2022-09-09T22:57:35;16.40;99.90
12460;DHT22;6295;49.452;8.466;2022-09-09T23:01:38;16.30;99.90
12460;DHT22;6295;49.452;8.466;2022-09-09T23:05:41;16.30;99.90
12460;DHT22;6295;49.452;8.466;2022-09-09T23:09:43;16.30;99.90
12460;DHT22;6295;49.452;8.466;2022-09-09T23:13:48;16.30;99.90
12460;DHT22;6295;49.452;8.466;2022-09-09T23:17:52;16.30;99.90
12460;DHT22;6295;49.452;8.466;2022-09-09T23:21:55;16.30;99.90
12460;DHT22;6295;49.452;8.466;2022-09-09T23:26:01;16.30;99.90
12460;DHT22;6295;49.452;8.466;2022-09-09T23:30:06;16.30;99.90
12460;DHT22;6295;49.452;8.466;2022-09-09T23:34:12;16.40;99.90
12460;DHT22;6295;49.452;8.466;2022-09-09T23:38:14;16.30;99.90
12460;DHT22;6295;49.452;8.466;2022-09-09T23:46:21;16.30;99.90
12460;DHT22;6295;49.452;8.466;2022-09-09T23:50:25;16.40;99.90
12460;DHT22;6295;49.452;8.466;2022-09-09T23:54:27;16.30;99.90
